createdAt,value
2018-12-13T00:01:25.729Z,13.33
2018-12-13T00:03:53.269Z,13.40
2018-12-13T00:06:20.822Z,13.73
2018-12-13T00:08:48.385Z,13.90
2018-12-13T00:11:15.960Z,13.93
2018-12-13T00:13:43.509Z,14.57
2018-12-13T00:16:11.028Z,13.10
2018-12-13T00:18:38.599Z,14.90
2018-12-13T00:21:06.134Z,14.93
2018-12-13T00:23:33.670Z,14.30
2018-12-13T00:26:01.245Z,14.47
2018-12-13T00:28:31.590Z,13.47
2018-12-13T00:30:59.158Z,14.27
2018-12-13T00:33:26.692Z,15.50
2018-12-13T00:35:54.251Z,14.57
2018-12-13T00:38:21.778Z,14.07
2018-12-13T00:40:49.300Z,14.03
2018-12-13T00:43:16.816Z,14.00
2018-12-13T00:45:44.410Z,14.30
2018-12-13T00:48:11.966Z,14.60
2018-12-13T00:50:39.555Z,14.90
2018-12-13T00:53:07.088Z,14.73
2018-12-13T00:55:34.600Z,14.23
2018-12-13T00:58:02.100Z,15.20
2018-12-13T01:00:29.601Z,14.80
2018-12-13T01:02:58.097Z,14.33
2018-12-13T01:05:25.588Z,14.43
2018-12-13T01:07:53.113Z,16.10
2018-12-13T01:10:20.613Z,14.33
2018-12-13T01:12:48.137Z,14.77
2018-12-13T01:15:15.657Z,14.00
2018-12-13T01:17:43.166Z,14.27
2018-12-13T01:20:10.657Z,14.47
2018-12-13T01:22:38.179Z,14.33
2018-12-13T01:25:05.694Z,15.33
2018-12-13T01:27:33.187Z,14.93
2018-12-13T01:30:00.702Z,16.67
2018-12-13T01:32:28.215Z,15.87
2018-12-13T01:34:55.712Z,15.03
2018-12-13T01:37:23.200Z,16.50
2018-12-13T01:39:50.698Z,15.57
2018-12-13T01:42:18.255Z,16.03
2018-12-13T01:44:45.775Z,14.60
2018-12-13T01:47:13.276Z,15.03
2018-12-13T01:49:40.838Z,15.00
2018-12-13T01:52:08.357Z,15.10
2018-12-13T01:54:35.869Z,15.23
2018-12-13T01:57:03.385Z,14.27
2018-12-13T01:59:31.228Z,14.30
2018-12-13T02:01:58.742Z,15.37
2018-12-13T02:04:26.245Z,15.03
2018-12-13T02:06:58.691Z,15.60
2018-12-13T02:09:23.308Z,15.30
2018-12-13T02:11:50.803Z,15.13
2018-12-13T02:14:18.312Z,15.87
2018-12-13T02:16:45.823Z,16.23
2018-12-13T02:19:13.331Z,15.97
2018-12-13T02:21:40.839Z,16.23
2018-12-13T02:24:08.930Z,15.73
2018-12-13T02:26:36.481Z,17.50
2018-12-13T02:29:04.007Z,16.13
2018-12-13T02:31:31.529Z,17.10
2018-12-13T02:33:59.036Z,16.13
2018-12-13T02:36:26.580Z,17.10
2018-12-13T02:38:54.075Z,17.70
2018-12-13T02:41:21.617Z,17.53
2018-12-13T02:43:49.141Z,17.13
2018-12-13T02:46:16.637Z,17.87
2018-12-13T02:48:44.158Z,17.80
2018-12-13T02:51:11.661Z,18.43
2018-12-13T02:53:39.180Z,19.50
2018-12-13T02:56:06.704Z,19.67
2018-12-13T02:58:34.244Z,19.50
2018-12-13T03:01:01.752Z,16.87
2018-12-13T03:03:29.254Z,18.17
2018-12-13T03:05:56.787Z,18.70
2018-12-13T03:08:24.286Z,18.23
2018-12-13T03:10:51.817Z,19.73
2018-12-13T03:13:26.275Z,19.70
2018-12-13T03:15:53.810Z,19.77
2018-12-13T03:18:21.323Z,19.13
2018-12-13T03:20:48.824Z,20.47
2018-12-13T03:23:16.328Z,18.40
2018-12-13T03:25:43.852Z,19.00
2018-12-13T03:28:11.392Z,20.73
2018-12-13T03:30:38.886Z,18.20
2018-12-13T03:33:06.436Z,19.17
2018-12-13T03:35:33.933Z,19.50
2018-12-13T03:38:01.472Z,19.23
2018-12-13T03:40:28.969Z,18.87
2018-12-13T03:42:56.471Z,18.87
2018-12-13T03:45:23.992Z,19.00
2018-12-13T03:47:51.491Z,19.17
2018-12-13T03:50:19.010Z,20.57
2018-12-13T03:52:46.522Z,19.10
2018-12-13T03:55:14.061Z,18.57
2018-12-13T03:57:41.572Z,19.40
2018-12-13T04:00:09.101Z,18.40
2018-12-13T04:02:36.617Z,19.63
2018-12-13T04:05:05.076Z,17.07
2018-12-13T04:07:32.581Z,18.50
2018-12-13T04:10:00.090Z,18.80
2018-12-13T04:12:27.630Z,20.17
2018-12-13T04:14:55.130Z,20.63
2018-12-13T04:17:22.659Z,18.13
2018-12-13T04:19:50.187Z,18.60
2018-12-13T04:22:17.712Z,18.07
2018-12-13T04:24:45.231Z,17.60
2018-12-13T04:27:12.734Z,17.67
2018-12-13T04:29:40.271Z,18.40
2018-12-13T04:32:07.921Z,18.53
2018-12-13T04:34:35.766Z,18.43
2018-12-13T04:37:04.249Z,17.90
2018-12-13T04:39:31.812Z,18.63
2018-12-13T04:41:59.309Z,17.37
2018-12-13T04:44:27.168Z,17.37
2018-12-13T04:46:54.720Z,17.50
2018-12-13T04:49:22.225Z,17.17
2018-12-13T04:51:49.731Z,17.63
2018-12-13T04:54:17.229Z,18.13
2018-12-13T04:56:45.031Z,17.63
2018-12-13T04:59:13.043Z,17.40
2018-12-13T05:01:40.606Z,17.33
2018-12-13T05:04:08.114Z,16.80
2018-12-13T05:06:35.637Z,17.50
2018-12-13T05:09:05.118Z,17.70
2018-12-13T05:11:32.638Z,19.97
2018-12-13T05:14:00.170Z,19.23
2018-12-13T05:16:27.677Z,20.20
2018-12-13T05:18:55.185Z,17.93
2018-12-13T05:21:22.684Z,18.43
2018-12-13T05:23:50.200Z,18.83
2018-12-13T05:26:17.715Z,18.40
2018-12-13T05:28:45.220Z,19.27
2018-12-13T05:31:12.752Z,20.33
2018-12-13T05:33:40.310Z,20.10
2018-12-13T05:36:07.810Z,20.33
2018-12-13T05:38:35.314Z,20.67
2018-12-13T05:41:02.843Z,20.97
2018-12-13T05:43:30.349Z,21.80
2018-12-13T05:45:57.849Z,20.90
2018-12-13T05:48:25.369Z,20.53
2018-12-13T05:50:52.897Z,21.63
2018-12-13T05:53:20.400Z,21.63
2018-12-13T05:55:47.939Z,21.30
2018-12-13T05:58:15.450Z,23.63
2018-12-13T06:00:42.951Z,24.03
2018-12-13T06:03:10.477Z,23.47
2018-12-13T06:05:37.972Z,23.80
2018-12-13T06:08:05.478Z,24.37
2018-12-13T06:10:33.007Z,25.37
2018-12-13T06:13:00.496Z,24.93
2018-12-13T06:15:28.002Z,26.00
2018-12-13T06:17:55.544Z,25.50
2018-12-13T06:20:23.118Z,24.97
2018-12-13T06:22:50.629Z,25.40
2018-12-13T06:25:18.146Z,26.87
2018-12-13T06:27:45.665Z,26.63
2018-12-13T06:30:14.253Z,25.07
2018-12-13T06:32:41.780Z,24.93
2018-12-13T06:35:09.291Z,25.47
2018-12-13T06:37:36.815Z,25.43
2018-12-13T06:40:05.413Z,25.13
2018-12-13T06:42:32.919Z,25.53
2018-12-13T06:45:00.425Z,25.90
2018-12-13T06:47:27.937Z,24.90
2018-12-13T06:49:55.446Z,24.57
2018-12-13T06:52:22.948Z,26.80
2018-12-13T06:54:50.458Z,25.27
2018-12-13T06:57:17.970Z,23.23
2018-12-13T06:59:45.496Z,23.83
2018-12-13T07:02:13.016Z,24.10
2018-12-13T07:04:40.520Z,25.80
2018-12-13T07:07:08.047Z,25.23
2018-12-13T07:09:35.574Z,23.93
2018-12-13T07:12:03.078Z,25.90
2018-12-13T07:14:30.585Z,23.30
2018-12-13T07:16:58.113Z,24.23
2018-12-13T07:19:26.243Z,23.93
2018-12-13T07:21:53.750Z,25.23
2018-12-13T07:24:21.271Z,25.17
2018-12-13T07:26:48.818Z,25.27
2018-12-13T07:29:16.412Z,23.00
2018-12-13T07:31:43.919Z,22.83
2018-12-13T07:34:12.424Z,23.87
2018-12-13T07:36:39.961Z,24.47
2018-12-13T07:39:07.791Z,22.73
2018-12-13T07:41:35.293Z,24.37
2018-12-13T07:44:02.801Z,23.40
2018-12-13T07:46:30.309Z,23.57
2018-12-13T07:48:57.820Z,22.17
2018-12-13T07:51:25.355Z,24.30
2018-12-13T07:53:52.852Z,25.33
2018-12-13T07:56:20.368Z,24.30
2018-12-13T07:58:47.863Z,22.57
2018-12-13T08:01:15.395Z,23.53
2018-12-13T08:03:42.909Z,24.60
2018-12-13T08:06:10.444Z,24.63
2018-12-13T08:08:37.981Z,25.13
2018-12-13T08:11:05.480Z,24.57
2018-12-13T08:13:33.054Z,23.17
2018-12-13T08:16:00.614Z,23.03
2018-12-13T08:18:28.156Z,24.03
2018-12-13T08:20:56.193Z,25.27
2018-12-13T08:23:23.754Z,24.67
2018-12-13T08:25:51.334Z,24.40
2018-12-13T08:28:18.973Z,23.80
2018-12-13T08:30:46.507Z,25.23
2018-12-13T08:33:14.038Z,23.07
2018-12-13T08:35:41.538Z,24.30
2018-12-13T08:38:09.067Z,25.30
2018-12-13T08:40:36.618Z,24.40
2018-12-13T08:43:04.824Z,24.83
2018-12-13T08:45:32.345Z,22.57
2018-12-13T08:47:59.973Z,24.33
2018-12-13T08:50:28.094Z,24.93
2018-12-13T08:52:55.638Z,23.53
2018-12-13T08:55:23.194Z,24.70
2018-12-13T08:57:50.848Z,23.60
2018-12-13T09:00:18.391Z,25.97
2018-12-13T09:02:45.910Z,25.10
2018-12-13T09:05:13.405Z,24.63
2018-12-13T09:07:40.904Z,24.17
2018-12-13T09:10:08.430Z,25.60
2018-12-13T09:12:35.922Z,25.87
2018-12-13T09:15:03.518Z,23.70
2018-12-13T09:17:31.005Z,25.97
2018-12-13T09:19:58.528Z,24.03
2018-12-13T09:22:26.019Z,25.57
2018-12-13T09:24:53.617Z,24.90
2018-12-13T09:27:21.182Z,24.70
2018-12-13T09:29:48.684Z,23.83
2018-12-13T09:32:16.188Z,24.00
2018-12-13T09:34:43.672Z,24.13
2018-12-13T09:37:11.156Z,24.43
2018-12-13T09:39:38.682Z,25.60
2018-12-13T09:42:06.190Z,26.27
2018-12-13T09:44:33.691Z,25.80
2018-12-13T09:47:01.197Z,27.07
2018-12-13T09:49:28.679Z,24.73
2018-12-13T09:51:56.175Z,24.03
2018-12-13T09:54:23.677Z,24.97
2018-12-13T09:56:51.245Z,23.50
2018-12-13T09:59:18.748Z,24.63
2018-12-13T10:01:46.242Z,24.30
2018-12-13T10:04:14.618Z,23.40
2018-12-13T10:06:42.100Z,24.27
2018-12-13T10:09:09.594Z,22.77
2018-12-13T10:11:37.109Z,24.43
2018-12-13T10:14:04.600Z,25.97
2018-12-13T10:16:32.094Z,23.87
2018-12-13T10:18:59.602Z,22.53
2018-12-13T10:21:27.094Z,22.80
2018-12-13T10:23:54.605Z,23.63
2018-12-13T10:26:22.084Z,21.43
2018-12-13T10:28:49.606Z,22.10
2018-12-13T10:31:17.093Z,20.40
2018-12-13T10:33:44.590Z,20.33
2018-12-13T10:36:12.077Z,20.57
2018-12-13T10:38:39.582Z,18.60
2018-12-13T10:41:07.072Z,19.13
2018-12-13T10:43:34.570Z,20.47
2018-12-13T10:46:02.086Z,19.23
2018-12-13T10:48:29.572Z,19.40
2018-12-13T10:50:57.065Z,20.00
2018-12-13T10:53:24.552Z,20.53
2018-12-13T10:55:52.050Z,19.30
2018-12-13T10:58:19.557Z,19.10
2018-12-13T11:00:52.632Z,20.10
2018-12-13T11:03:25.817Z,18.67
2018-12-13T11:05:53.321Z,18.97
2018-12-13T11:08:20.811Z,19.20
2018-12-13T11:10:48.300Z,19.87
2018-12-13T11:13:15.800Z,18.70
2018-12-13T11:15:43.293Z,20.20
2018-12-13T11:18:10.783Z,19.27
2018-12-13T11:20:38.279Z,20.17
2018-12-13T11:23:05.769Z,19.53
2018-12-13T11:25:33.265Z,19.13
2018-12-13T11:28:13.377Z,19.50
2018-12-13T11:30:40.869Z,20.93
2018-12-13T11:33:08.411Z,19.23
2018-12-13T11:35:35.929Z,19.33
2018-12-13T11:38:03.416Z,19.83
2018-12-13T11:40:31.690Z,20.20
2018-12-13T11:42:59.191Z,18.30
2018-12-13T11:45:26.691Z,19.13
2018-12-13T11:47:54.187Z,18.13
2018-12-13T11:50:21.710Z,18.93
2018-12-13T11:52:49.205Z,18.47
2018-12-13T11:55:34.796Z,18.97
2018-12-13T11:58:02.651Z,18.47
2018-12-13T12:00:30.151Z,17.60
2018-12-13T12:02:57.661Z,16.90
2018-12-13T12:05:25.153Z,19.83
2018-12-13T12:07:52.654Z,18.13
2018-12-13T12:10:20.137Z,18.20
2018-12-13T12:12:47.636Z,18.23
2018-12-13T12:15:15.172Z,17.37
2018-12-13T12:17:42.677Z,17.23
2018-12-13T12:20:10.169Z,19.10
2018-12-13T12:22:37.661Z,18.13
2018-12-13T12:25:06.037Z,17.27
2018-12-13T12:27:33.636Z,18.93
2018-12-13T12:30:01.139Z,16.73
2018-12-13T12:32:28.649Z,16.93
2018-12-13T12:34:56.220Z,18.03
2018-12-13T12:37:23.760Z,18.50
2018-12-13T12:39:51.258Z,17.20
2018-12-13T12:42:18.762Z,17.93
2018-12-13T12:44:46.264Z,17.47
2018-12-13T12:47:13.780Z,17.97
2018-12-13T12:49:41.276Z,18.93
2018-12-13T12:52:08.760Z,18.57
2018-12-13T12:54:42.361Z,18.83
2018-12-13T12:57:09.854Z,18.07
2018-12-13T12:59:37.352Z,18.23
2018-12-13T13:02:04.835Z,18.13
2018-12-13T13:04:32.326Z,19.57
2018-12-13T13:06:59.825Z,17.47
2018-12-13T13:09:27.333Z,17.27
2018-12-13T13:11:54.850Z,17.13
2018-12-13T13:14:22.361Z,18.90
2018-12-13T13:16:49.931Z,17.20
2018-12-13T13:19:17.415Z,17.20
2018-12-13T13:21:44.939Z,17.83
2018-12-13T13:24:12.425Z,16.87
2018-12-13T13:26:39.917Z,17.50
2018-12-13T13:29:07.427Z,17.60
2018-12-13T13:31:34.925Z,16.83
2018-12-13T13:34:02.419Z,16.97
2018-12-13T13:36:29.914Z,17.47
2018-12-13T13:38:57.446Z,16.87
2018-12-13T13:41:24.937Z,17.27
2018-12-13T13:43:52.425Z,17.43
2018-12-13T13:46:19.914Z,17.17
2018-12-13T13:48:47.409Z,17.57
2018-12-13T13:51:14.915Z,16.93
2018-12-13T13:53:42.407Z,17.03
2018-12-13T13:56:09.917Z,17.70
2018-12-13T13:58:37.421Z,17.70
2018-12-13T14:01:04.920Z,18.97
2018-12-13T14:03:32.419Z,17.80
2018-12-13T14:05:59.920Z,18.67
2018-12-13T14:08:27.416Z,18.37
2018-12-13T14:10:54.905Z,19.30
2018-12-13T14:13:22.651Z,18.60
2018-12-13T14:15:50.190Z,20.33
2018-12-13T14:18:17.690Z,18.27
2018-12-13T14:20:45.190Z,19.40
2018-12-13T14:23:12.864Z,19.17
2018-12-13T14:25:40.384Z,20.20
2018-12-13T14:28:07.899Z,21.57
2018-12-13T14:30:35.391Z,21.70
2018-12-13T14:33:02.892Z,21.90
2018-12-13T14:35:30.390Z,21.17
2018-12-13T14:37:57.910Z,21.47
2018-12-13T14:40:25.422Z,21.57
2018-12-13T14:42:52.946Z,21.83
2018-12-13T14:45:20.459Z,22.50
2018-12-13T14:47:47.956Z,22.83
2018-12-13T14:50:15.446Z,23.40
2018-12-13T14:52:42.932Z,23.67
2018-12-13T14:55:10.425Z,23.63
2018-12-13T14:57:37.941Z,24.00
2018-12-13T15:00:07.001Z,22.47
2018-12-13T15:02:34.522Z,21.63
2018-12-13T15:05:02.207Z,24.07
2018-12-13T15:07:29.726Z,22.30
2018-12-13T15:09:57.229Z,22.87
2018-12-13T15:12:24.731Z,24.07
2018-12-13T15:14:52.281Z,24.43
2018-12-13T15:17:19.789Z,23.53
2018-12-13T15:19:47.310Z,23.47
2018-12-13T15:22:14.806Z,23.87
2018-12-13T15:24:42.310Z,26.03
2018-12-13T15:27:09.824Z,25.10
2018-12-13T15:29:37.312Z,23.20
2018-12-13T15:32:04.810Z,23.67
2018-12-13T15:34:32.295Z,23.47
2018-12-13T15:36:59.796Z,23.80
2018-12-13T15:39:27.298Z,24.13
2018-12-13T15:41:54.814Z,23.43
2018-12-13T15:44:22.309Z,24.13
2018-12-13T15:46:49.837Z,24.13
2018-12-13T15:49:17.329Z,23.27
2018-12-13T15:51:44.833Z,23.90
2018-12-13T15:54:12.345Z,24.40
2018-12-13T15:56:39.845Z,23.87
2018-12-13T15:59:07.351Z,24.93
2018-12-13T16:01:34.842Z,24.27
2018-12-13T16:04:02.333Z,24.43
2018-12-13T16:06:29.850Z,25.53
2018-12-13T16:08:57.352Z,24.17
2018-12-13T16:11:24.850Z,23.63
2018-12-13T16:13:52.355Z,25.40
2018-12-13T16:16:19.843Z,24.27
2018-12-13T16:18:47.361Z,23.83
2018-12-13T16:21:14.859Z,23.77
2018-12-13T16:23:42.347Z,25.53
2018-12-13T16:26:09.841Z,26.07
2018-12-13T16:28:37.342Z,25.33
2018-12-13T16:31:04.836Z,25.10
2018-12-13T16:33:32.332Z,25.57
2018-12-13T16:35:59.830Z,25.00
2018-12-13T16:38:27.312Z,24.97
2018-12-13T16:40:54.821Z,25.10
2018-12-13T16:43:22.312Z,24.90
2018-12-13T16:45:49.810Z,25.17
2018-12-13T16:48:17.317Z,25.43
2018-12-13T16:50:44.829Z,24.50
2018-12-13T16:53:12.330Z,27.60
2018-12-13T16:55:39.816Z,27.30
2018-12-13T16:58:07.376Z,24.87
2018-12-13T17:00:34.867Z,25.20
2018-12-13T17:03:06.325Z,25.13
2018-12-13T17:05:33.853Z,25.27
2018-12-13T17:08:01.345Z,25.90
2018-12-13T17:10:28.833Z,28.40
2018-12-13T17:12:56.375Z,27.00
2018-12-13T17:15:23.928Z,27.30
2018-12-13T17:17:51.478Z,26.57
2018-12-13T17:20:19.046Z,26.63
2018-12-13T17:22:46.653Z,26.70
2018-12-13T17:25:14.156Z,28.13
2018-12-13T17:27:41.690Z,29.53
2018-12-13T17:30:09.290Z,28.53
2018-12-13T17:32:36.786Z,28.20
2018-12-13T17:35:05.031Z,27.83
2018-12-13T17:37:32.546Z,28.73
2018-12-13T17:40:00.109Z,29.00
2018-12-13T17:42:27.621Z,28.20
2018-12-13T17:44:55.134Z,27.60
2018-12-13T17:47:22.617Z,28.37
2018-12-13T17:49:50.117Z,27.60
2018-12-13T17:52:17.623Z,27.27
2018-12-13T17:54:45.142Z,29.67
2018-12-13T17:57:12.651Z,29.83
2018-12-13T17:59:40.164Z,29.73
2018-12-13T18:02:07.712Z,28.50
2018-12-13T18:04:35.213Z,30.50
2018-12-13T18:07:02.848Z,29.43
2018-12-13T18:09:30.438Z,29.33
2018-12-13T18:11:57.994Z,28.87
2018-12-13T18:14:25.576Z,29.10
2018-12-13T18:16:53.118Z,29.20
2018-12-13T18:19:21.834Z,29.73
2018-12-13T18:21:49.571Z,29.43
2018-12-13T18:24:17.178Z,28.67
2018-12-13T18:26:44.885Z,28.70
2018-12-13T18:29:12.914Z,28.13
2018-12-13T18:31:40.603Z,29.30
2018-12-13T18:34:08.132Z,28.90
2018-12-13T18:36:35.716Z,28.20
2018-12-13T18:39:05.310Z,29.53
2018-12-13T18:41:32.980Z,28.67
2018-12-13T18:44:00.651Z,30.00
2018-12-13T18:46:29.145Z,27.50
2018-12-13T18:48:56.729Z,29.40
2018-12-13T18:51:24.294Z,28.97
2018-12-13T18:53:51.892Z,29.83
2018-12-13T18:56:19.419Z,29.30
2018-12-13T18:58:46.956Z,29.97
2018-12-13T19:01:14.549Z,30.20
2018-12-13T19:03:42.116Z,31.33
2018-12-13T19:06:10.064Z,30.43
2018-12-13T19:08:37.576Z,28.57
2018-12-13T19:11:05.243Z,27.33
2018-12-13T19:13:32.816Z,27.40
2018-12-13T19:16:00.328Z,30.80
2018-12-13T19:18:27.852Z,29.50
2018-12-13T19:20:55.390Z,28.07
2018-12-13T19:23:22.895Z,27.87
2018-12-13T19:25:50.453Z,27.90
2018-12-13T19:28:17.974Z,29.37
2018-12-13T19:30:45.500Z,28.07
2018-12-13T19:33:13.055Z,27.33
2018-12-13T19:35:41.001Z,28.03
2018-12-13T19:38:08.525Z,27.57
2018-12-13T19:40:36.020Z,28.07
2018-12-13T19:43:03.509Z,26.20
2018-12-13T19:45:31.013Z,28.83
2018-12-13T19:47:58.543Z,29.07
2018-12-13T19:50:26.069Z,28.27
2018-12-13T19:52:53.568Z,27.97
2018-12-13T19:55:21.123Z,28.07
2018-12-13T19:57:48.658Z,28.73
2018-12-13T20:00:16.196Z,28.40
2018-12-13T20:02:43.717Z,29.97
2018-12-13T20:05:11.217Z,29.17
2018-12-13T20:07:38.732Z,28.93
2018-12-13T20:10:07.405Z,29.73
2018-12-13T20:12:34.962Z,28.63
2018-12-13T20:15:02.452Z,31.03
2018-12-13T20:17:30.038Z,30.87
2018-12-13T20:19:57.551Z,29.23
2018-12-13T20:22:25.148Z,31.97
2018-12-13T20:24:52.697Z,30.97
2018-12-13T20:27:20.249Z,29.30
2018-12-13T20:29:47.756Z,28.93
2018-12-13T20:32:15.386Z,27.40
2018-12-13T20:34:43.178Z,28.97
2018-12-13T20:37:10.690Z,28.87
2018-12-13T20:39:38.213Z,29.47
2018-12-13T20:42:05.757Z,31.13
2018-12-13T20:44:33.265Z,28.83
2018-12-13T20:47:00.773Z,28.87
2018-12-13T20:49:28.311Z,28.50
2018-12-13T20:51:55.801Z,28.67
2018-12-13T20:54:23.813Z,29.07
2018-12-13T20:56:51.393Z,28.83
2018-12-13T20:59:18.942Z,29.67
2018-12-13T21:01:46.456Z,29.30
2018-12-13T21:04:13.965Z,28.23
2018-12-13T21:06:41.599Z,28.10
2018-12-13T21:09:09.178Z,25.83
2018-12-13T21:11:36.669Z,28.80
2018-12-13T21:14:04.187Z,29.43
2018-12-13T21:16:31.677Z,28.20
2018-12-13T21:18:59.216Z,28.20
2018-12-13T21:21:26.791Z,27.83
2018-12-13T21:23:54.295Z,27.07
2018-12-13T21:26:21.826Z,28.93
2018-12-13T21:28:49.352Z,27.33
2018-12-13T21:31:16.885Z,26.47
2018-12-13T21:33:44.462Z,27.17
2018-12-13T21:36:12.010Z,27.20
2018-12-13T21:38:39.575Z,25.77
2018-12-13T21:41:07.096Z,26.03
2018-12-13T21:43:34.846Z,25.47
2018-12-13T21:46:02.421Z,24.80
2018-12-13T21:48:29.923Z,23.63
2018-12-13T21:50:57.442Z,25.33
2018-12-13T21:53:25.184Z,24.43
2018-12-13T21:55:52.697Z,24.80
2018-12-13T21:58:22.272Z,25.93
2018-12-13T22:00:49.807Z,26.27
2018-12-13T22:03:17.326Z,24.67
2018-12-13T22:05:44.845Z,25.07
2018-12-13T22:08:12.362Z,24.37
2018-12-13T22:10:39.889Z,25.83
2018-12-13T22:13:07.405Z,25.50
2018-12-13T22:15:35.015Z,25.73
2018-12-13T22:18:02.612Z,25.23
2018-12-13T22:20:30.128Z,26.10
2018-12-13T22:22:57.651Z,25.10
2018-12-13T22:25:25.170Z,25.23
2018-12-13T22:27:52.756Z,24.87
2018-12-13T22:30:20.284Z,25.47
2018-12-13T22:32:47.861Z,25.63
2018-12-13T22:35:15.384Z,24.73
2018-12-13T22:37:42.906Z,23.17
2018-12-13T22:40:10.428Z,24.47
2018-12-13T22:42:38.916Z,25.23
2018-12-13T22:45:06.411Z,25.43
2018-12-13T22:47:33.937Z,23.77
2018-12-13T22:50:02.417Z,23.93
2018-12-13T22:52:30.930Z,22.97
2018-12-13T22:54:58.442Z,23.33
2018-12-13T22:57:25.950Z,24.43
2018-12-13T22:59:55.418Z,24.43
2018-12-13T23:02:22.951Z,24.47
2018-12-13T23:04:50.492Z,24.50
2018-12-13T23:07:17.998Z,24.23
2018-12-13T23:09:45.568Z,26.67
2018-12-13T23:12:13.086Z,24.00
2018-12-13T23:14:40.797Z,23.93
2018-12-13T23:17:08.697Z,24.87
2018-12-13T23:19:36.293Z,24.50
2018-12-13T23:22:03.813Z,25.43
2018-12-13T23:24:31.360Z,25.73
2018-12-13T23:26:58.861Z,25.97
2018-12-13T23:29:26.357Z,24.93
2018-12-13T23:31:53.870Z,25.57
2018-12-13T23:34:21.380Z,23.33
2018-12-13T23:36:49.993Z,24.67
2018-12-13T23:39:17.506Z,23.27
2018-12-13T23:41:45.008Z,24.20
2018-12-13T23:44:12.517Z,24.80
2018-12-13T23:46:40.058Z,24.90
2018-12-13T23:49:07.587Z,23.87
2018-12-13T23:51:35.129Z,23.87
2018-12-13T23:54:02.763Z,22.20
2018-12-13T23:56:30.282Z,21.70
2018-12-13T23:58:57.980Z,21.07
